createdAt,value
2022-09-24T00:01:38.757Z,4.40
2022-09-24T00:04:09.664Z,4.83
2022-09-24T00:06:44.420Z,4.20
2022-09-24T00:09:14.510Z,4.27
2022-09-24T00:11:43.988Z,4.27
2022-09-24T00:14:11.342Z,4.50
2022-09-24T00:16:40.515Z,4.50
2022-09-24T00:19:07.652Z,4.43
2022-09-24T00:21:37.294Z,4.10
2022-09-24T00:24:33.840Z,4.03
2022-09-24T00:27:01.033Z,4.93
2022-09-24T00:29:27.986Z,4.17
2022-09-24T00:31:55.106Z,3.73
2022-09-24T00:34:22.042Z,4.23
2022-09-24T00:36:48.923Z,4.17
2022-09-24T00:39:16.692Z,4.87
2022-09-24T00:41:47.844Z,3.50
2022-09-24T00:44:45.849Z,3.73
2022-09-24T00:47:27.833Z,3.30
2022-09-24T00:50:18.357Z,4.00
2022-09-24T00:53:07.565Z,3.63
2022-09-24T00:55:36.852Z,4.00
2022-09-24T00:58:07.298Z,3.83
2022-09-24T01:00:37.094Z,3.43
2022-09-24T01:03:11.455Z,3.57
2022-09-24T01:05:39.230Z,3.63
2022-09-24T01:08:14.581Z,3.23
2022-09-24T01:11:18.300Z,3.47
2022-09-24T01:14:36.652Z,3.77
2022-09-24T01:17:14.359Z,3.03
2022-09-24T01:20:17.808Z,3.90
2022-09-24T01:23:21.259Z,4.40
2022-09-24T01:26:33.509Z,3.60
2022-09-24T01:29:25.157Z,3.40
2022-09-24T01:32:07.389Z,3.30
2022-09-24T01:35:00.386Z,3.80
2022-09-24T01:37:31.830Z,3.63
2022-09-24T01:40:00.238Z,3.60
2022-09-24T01:42:30.332Z,3.83
2022-09-24T01:44:58.242Z,4.00
2022-09-24T01:47:39.812Z,3.67
2022-09-24T01:50:17.186Z,4.33
2022-09-24T01:53:11.411Z,4.10
2022-09-24T01:55:48.938Z,4.40
2022-09-24T01:58:29.773Z,3.60
2022-09-24T02:01:08.197Z,4.00
2022-09-24T02:03:43.555Z,4.30
2022-09-24T02:06:25.393Z,3.97
2022-09-24T02:08:52.281Z,4.40
2022-09-24T02:11:23.245Z,3.97
2022-09-24T02:14:13.662Z,4.23
2022-09-24T02:16:46.838Z,3.97
2022-09-24T02:19:23.627Z,4.33
2022-09-24T02:21:52.079Z,3.93
2022-09-24T02:24:33.603Z,4.50
2022-09-24T02:27:00.796Z,4.90
2022-09-24T02:29:27.717Z,4.40
2022-09-24T02:31:56.965Z,4.53
2022-09-24T02:34:32.989Z,4.77
2022-09-24T02:37:06.754Z,4.50
2022-09-24T02:39:33.960Z,4.67
2022-09-24T02:42:03.813Z,4.80
2022-09-24T02:44:31.167Z,4.63
2022-09-24T02:46:58.810Z,4.37
2022-09-24T02:49:25.851Z,4.20
2022-09-24T02:51:52.733Z,4.73
2022-09-24T02:54:19.599Z,4.90
2022-09-24T02:56:46.493Z,4.67
2022-09-24T02:59:13.608Z,4.80
2022-09-24T03:01:40.886Z,4.30
2022-09-24T03:04:08.217Z,5.03
2022-09-24T03:06:35.165Z,4.93
2022-09-24T03:09:03.411Z,4.37
2022-09-24T03:11:32.006Z,4.17
2022-09-24T03:13:59.465Z,5.37
2022-09-24T03:16:27.203Z,4.60
2022-09-24T03:18:54.143Z,4.70
2022-09-24T03:21:22.311Z,4.90
2022-09-24T03:23:49.521Z,4.73
2022-09-24T03:26:17.806Z,4.80
2022-09-24T03:28:45.116Z,5.13
2022-09-24T03:31:12.804Z,5.33
2022-09-24T03:33:43.449Z,6.10
2022-09-24T03:36:25.806Z,6.20
2022-09-24T03:38:56.276Z,6.00
2022-09-24T03:41:25.420Z,6.30
2022-09-24T03:43:52.405Z,5.83
2022-09-24T03:46:19.538Z,6.70
2022-09-24T03:48:47.486Z,6.30
2022-09-24T03:51:19.143Z,6.50
2022-09-24T03:53:47.524Z,7.57
2022-09-24T03:56:14.827Z,7.07
2022-09-24T03:58:47.379Z,6.07
2022-09-24T04:01:21.753Z,6.70
2022-09-24T04:03:50.497Z,6.40
2022-09-24T04:06:22.015Z,5.27
2022-09-24T04:08:51.854Z,4.60
2022-09-24T04:11:18.710Z,4.97
2022-09-24T04:13:45.567Z,5.00
2022-09-24T04:16:12.521Z,5.10
2022-09-24T04:18:39.701Z,5.10
2022-09-24T04:21:07.148Z,5.00
2022-09-24T04:23:34.224Z,5.00
2022-09-24T04:26:02.241Z,4.50
2022-09-24T04:28:30.289Z,4.33
2022-09-24T04:30:58.180Z,5.43
2022-09-24T04:33:25.662Z,4.87
2022-09-24T04:35:52.546Z,6.57
2022-09-24T04:38:21.244Z,5.50
2022-09-24T04:40:48.796Z,5.37
2022-09-24T04:43:15.850Z,4.93
2022-09-24T04:45:45.788Z,4.97
2022-09-24T04:48:13.281Z,5.20
2022-09-24T04:50:45.540Z,4.53
2022-09-24T04:53:13.186Z,4.30
2022-09-24T04:55:41.525Z,4.83
2022-09-24T04:58:08.551Z,4.10
2022-09-24T05:00:35.415Z,4.80
2022-09-24T05:03:03.688Z,5.43
2022-09-24T05:05:32.764Z,5.80
2022-09-24T05:08:01.392Z,5.33
2022-09-24T05:10:31.426Z,5.57
2022-09-24T05:12:58.371Z,5.03
2022-09-24T05:15:25.253Z,5.70
2022-09-24T05:17:52.151Z,4.90
2022-09-24T05:20:19.024Z,5.33
2022-09-24T05:22:49.441Z,4.77
2022-09-24T05:25:18.973Z,5.00
2022-09-24T05:27:48.475Z,5.50
2022-09-24T05:30:17.091Z,6.40
2022-09-24T05:32:44.185Z,5.83
2022-09-24T05:35:11.129Z,6.87
2022-09-24T05:37:39.120Z,5.53
2022-09-24T05:40:26.048Z,6.07
2022-09-24T05:43:00.050Z,5.70
2022-09-24T05:45:26.907Z,6.57
2022-09-24T05:47:53.812Z,6.40
2022-09-24T05:50:21.383Z,6.27
2022-09-24T05:52:48.377Z,5.07
2022-09-24T05:55:15.406Z,5.67
2022-09-24T05:57:42.287Z,5.23
2022-09-24T06:00:09.877Z,5.90
2022-09-24T06:02:39.876Z,5.90
2022-09-24T06:05:07.452Z,6.20
2022-09-24T06:07:34.373Z,6.30
2022-09-24T06:10:01.252Z,6.07
2022-09-24T06:12:28.361Z,5.40
2022-09-24T06:14:55.241Z,5.93
2022-09-24T06:17:22.214Z,5.93
2022-09-24T06:19:49.086Z,5.93
2022-09-24T06:22:15.990Z,6.70
2022-09-24T06:24:42.856Z,6.53
2022-09-24T06:27:09.740Z,6.10
2022-09-24T06:29:36.613Z,6.57
2022-09-24T06:32:03.680Z,7.03
2022-09-24T06:34:30.639Z,6.30
2022-09-24T06:36:57.529Z,6.60
2022-09-24T06:39:27.284Z,6.60
2022-09-24T06:41:56.640Z,6.10
2022-09-24T06:44:24.102Z,6.80
2022-09-24T06:46:51.552Z,6.33
2022-09-24T06:49:18.467Z,6.27
2022-09-24T06:51:45.995Z,5.97
2022-09-24T06:54:12.937Z,6.50
2022-09-24T06:56:40.358Z,6.37
2022-09-24T06:59:09.114Z,7.20
2022-09-24T07:01:36.186Z,6.13
2022-09-24T07:04:03.137Z,6.77
2022-09-24T07:06:49.985Z,6.23
2022-09-24T07:09:16.879Z,5.93
2022-09-24T07:11:46.051Z,6.13
2022-09-24T07:14:13.718Z,5.90
2022-09-24T07:16:40.601Z,5.67
2022-09-24T07:19:07.597Z,6.13
2022-09-24T07:21:35.339Z,6.33
2022-09-24T07:24:02.374Z,5.70
2022-09-24T07:26:29.943Z,5.97
2022-09-24T07:28:56.834Z,6.83
2022-09-24T07:31:26.962Z,6.17
2022-09-24T07:33:53.909Z,5.87
2022-09-24T07:36:20.775Z,6.30
2022-09-24T07:38:47.735Z,6.40
2022-09-24T07:41:14.788Z,6.23
2022-09-24T07:43:42.136Z,6.07
2022-09-24T07:46:09.268Z,6.33
2022-09-24T07:48:36.303Z,6.93
2022-09-24T07:51:03.201Z,6.80
2022-09-24T07:53:30.085Z,6.43
2022-09-24T07:55:59.650Z,6.20
2022-09-24T07:58:26.586Z,6.90
2022-09-24T08:00:53.478Z,7.03
2022-09-24T08:03:20.428Z,6.97
2022-09-24T08:05:47.593Z,8.30
2022-09-24T08:08:14.962Z,7.60
2022-09-24T08:10:42.985Z,6.70
2022-09-24T08:13:09.869Z,5.90
2022-09-24T08:15:36.827Z,5.73
2022-09-24T08:18:04.994Z,5.93
2022-09-24T08:20:37.184Z,5.80
2022-09-24T08:23:07.537Z,5.60
2022-09-24T08:25:34.403Z,6.03
2022-09-24T08:28:03.389Z,8.40
2022-09-24T08:30:30.997Z,6.50
2022-09-24T08:32:58.712Z,6.50
2022-09-24T08:35:25.629Z,6.80
2022-09-24T08:37:55.568Z,6.53
2022-09-24T08:40:30.180Z,5.63
2022-09-24T08:43:36.669Z,5.90
2022-09-24T08:46:35.202Z,6.23
2022-09-24T08:49:05.031Z,6.37
2022-09-24T08:51:41.328Z,6.70
2022-09-24T08:54:13.449Z,6.10
2022-09-24T08:56:45.689Z,6.43
2022-09-24T08:59:30.321Z,6.77
2022-09-24T09:02:35.251Z,7.00
2022-09-24T09:05:29.815Z,6.60
2022-09-24T09:08:27.387Z,5.87
2022-09-24T09:11:03.056Z,6.13
2022-09-24T09:13:44.300Z,6.37
2022-09-24T09:16:29.854Z,6.63
2022-09-24T09:19:06.515Z,5.60
2022-09-24T09:21:49.240Z,5.93
2022-09-24T09:24:27.361Z,5.63
2022-09-24T09:26:56.703Z,5.63
2022-09-24T09:29:25.978Z,5.60
2022-09-24T09:32:10.262Z,6.87
2022-09-24T09:34:53.351Z,5.47
2022-09-24T09:37:40.557Z,6.10
2022-09-24T09:40:32.466Z,5.30
2022-09-24T09:43:09.157Z,5.40
2022-09-24T09:46:12.595Z,6.20
2022-09-24T09:48:52.197Z,5.50
2022-09-24T09:51:23.158Z,5.20
2022-09-24T09:54:02.217Z,5.60
2022-09-24T09:56:34.295Z,5.37
2022-09-24T09:59:27.154Z,4.67
2022-09-24T10:01:56.706Z,5.80
2022-09-24T10:04:39.913Z,4.87
2022-09-24T10:07:16.083Z,5.30
2022-09-24T10:09:44.746Z,5.63
2022-09-24T10:12:22.781Z,5.20
2022-09-24T10:15:12.229Z,4.60
2022-09-24T10:17:39.732Z,4.77
2022-09-24T10:20:30.026Z,4.40
2022-09-24T10:23:02.310Z,5.17
2022-09-24T10:25:31.367Z,4.60
2022-09-24T10:28:26.378Z,5.33
2022-09-24T10:30:59.227Z,4.37
2022-09-24T10:33:26.702Z,4.07
2022-09-24T10:36:07.645Z,4.27
2022-09-24T10:38:34.811Z,4.03
2022-09-24T10:41:02.011Z,4.47
2022-09-24T10:43:28.986Z,5.07
2022-09-24T10:46:40.955Z,4.60
2022-09-24T10:49:22.552Z,4.20
2022-09-24T10:52:42.390Z,4.20
2022-09-24T10:55:30.836Z,3.93
2022-09-24T10:58:31.766Z,4.80
2022-09-24T11:01:27.318Z,4.40
2022-09-24T11:04:10.194Z,4.37
2022-09-24T11:07:14.865Z,4.43
2022-09-24T11:10:01.318Z,4.50
2022-09-24T11:13:23.281Z,4.20
2022-09-24T11:16:55.378Z,4.20
2022-09-24T11:20:17.383Z,4.60
2022-09-24T11:23:17.259Z,3.70
2022-09-24T11:25:59.193Z,4.17
2022-09-24T11:29:15.910Z,6.10
2022-09-24T11:32:20.799Z,4.17
2022-09-24T11:35:18.599Z,3.83
2022-09-24T11:38:18.091Z,3.90
2022-09-24T11:41:16.948Z,4.20
2022-09-24T11:44:30.825Z,4.27
2022-09-24T11:47:26.133Z,4.90
2022-09-24T11:50:38.129Z,4.87
2022-09-24T11:53:32.425Z,4.53
2022-09-24T11:56:13.577Z,4.60
2022-09-24T11:58:51.584Z,4.70
2022-09-24T12:01:25.271Z,4.77
2022-09-24T12:04:16.572Z,3.63
2022-09-24T12:06:54.199Z,4.20
2022-09-24T12:09:40.628Z,4.90
2022-09-24T12:12:15.384Z,5.07
2022-09-24T12:14:56.265Z,4.50
2022-09-24T12:17:39.636Z,4.53
2022-09-24T12:20:24.973Z,5.63
2022-09-24T12:23:08.068Z,6.17
2022-09-24T12:25:45.039Z,5.53
2022-09-24T12:28:36.013Z,5.87
2022-09-24T12:31:31.446Z,5.33
2022-09-24T12:34:16.715Z,4.33
2022-09-24T12:37:06.300Z,4.77
2022-09-24T12:39:48.092Z,3.90
2022-09-24T12:42:17.320Z,4.20
2022-09-24T12:44:51.510Z,4.00
2022-09-24T12:47:23.219Z,4.37
2022-09-24T12:49:56.530Z,4.43
2022-09-24T12:52:41.699Z,4.57
2022-09-24T12:55:25.597Z,4.50
2022-09-24T12:57:59.505Z,4.57
2022-09-24T13:00:32.446Z,5.40
2022-09-24T13:03:01.107Z,5.10
2022-09-24T13:05:42.101Z,5.17
2022-09-24T13:08:11.544Z,5.37
2022-09-24T13:10:38.489Z,5.33
2022-09-24T13:13:29.025Z,5.90
2022-09-24T13:16:17.496Z,5.77
2022-09-24T13:18:57.912Z,4.37
2022-09-24T13:21:28.131Z,5.70
2022-09-24T13:23:56.166Z,6.93
2022-09-24T13:26:30.651Z,5.20
2022-09-24T13:29:06.762Z,4.60
2022-09-24T13:31:52.243Z,6.30
2022-09-24T13:34:27.055Z,32.50
2022-09-24T13:37:11.677Z,15.23
2022-09-24T13:39:51.813Z,20.07
2022-09-24T13:42:46.122Z,7.40
2022-09-24T13:45:20.753Z,4.67
2022-09-24T13:48:04.249Z,5.10
2022-09-24T13:50:34.631Z,6.73
2022-09-24T13:53:07.610Z,5.17
2022-09-24T13:55:50.228Z,3.60
2022-09-24T13:58:39.504Z,3.70
2022-09-24T14:01:20.691Z,3.30
2022-09-24T14:04:02.838Z,3.70
2022-09-24T14:06:38.824Z,3.50
2022-09-24T14:09:35.361Z,3.80
2022-09-24T14:12:22.561Z,3.93
2022-09-24T14:14:58.080Z,3.57
2022-09-24T14:17:25.706Z,3.50
2022-09-24T14:19:57.187Z,3.93
2022-09-24T14:22:31.853Z,3.50
2022-09-24T14:25:25.655Z,3.00
2022-09-24T14:27:52.585Z,2.70
2022-09-24T14:30:25.718Z,2.90
2022-09-24T14:33:16.182Z,3.90
2022-09-24T14:35:48.581Z,3.00
2022-09-24T14:38:29.643Z,3.50
2022-09-24T14:41:04.409Z,3.00
2022-09-24T14:43:44.758Z,6.00
2022-09-24T14:46:27.737Z,5.57
2022-09-24T14:49:22.344Z,7.07
2022-09-24T14:52:01.493Z,3.87
2022-09-24T14:54:38.125Z,3.77
2022-09-24T14:57:17.267Z,3.10
2022-09-24T14:59:44.740Z,3.83
2022-09-24T15:02:37.122Z,3.93
2022-09-24T15:05:08.054Z,3.60
2022-09-24T15:07:36.148Z,4.60
2022-09-24T15:10:06.215Z,4.10
2022-09-24T15:12:36.688Z,3.87
2022-09-24T15:15:18.301Z,4.13
2022-09-24T15:17:47.323Z,4.50
2022-09-24T15:20:14.588Z,4.40
2022-09-24T15:22:41.502Z,4.77
2022-09-24T15:25:08.963Z,4.20
2022-09-24T15:27:42.151Z,4.20
2022-09-24T15:30:19.824Z,4.97
2022-09-24T15:32:49.866Z,4.03
2022-09-24T15:35:17.060Z,5.30
2022-09-24T15:37:44.873Z,5.37
2022-09-24T15:40:25.313Z,5.13
2022-09-24T15:42:52.581Z,5.10
2022-09-24T15:45:24.610Z,5.70
2022-09-24T15:47:53.305Z,5.63
2022-09-24T15:50:22.890Z,6.23
2022-09-24T15:52:57.749Z,5.90
2022-09-24T15:55:24.651Z,5.73
2022-09-24T15:57:51.539Z,5.50
2022-09-24T16:00:21.759Z,5.70
2022-09-24T16:02:54.061Z,5.80
2022-09-24T16:05:21.761Z,6.20
2022-09-24T16:07:49.152Z,8.03
2022-09-24T16:10:16.660Z,6.60
2022-09-24T16:12:43.962Z,6.23
2022-09-24T16:15:15.036Z,50.50
2022-09-24T16:17:43.324Z,47.43
2022-09-24T16:20:10.430Z,16.20
2022-09-24T16:22:37.394Z,8.83
2022-09-24T16:25:04.838Z,7.00
2022-09-24T16:27:31.734Z,5.90
2022-09-24T16:29:58.639Z,5.60
2022-09-24T16:32:25.686Z,5.33
2022-09-24T16:34:54.806Z,6.67
2022-09-24T16:37:21.843Z,5.57
2022-09-24T16:39:48.931Z,6.23
2022-09-24T16:42:16.194Z,6.13
2022-09-24T16:44:43.072Z,6.80
2022-09-24T16:47:10.250Z,7.30
2022-09-24T16:49:37.120Z,11.17
2022-09-24T16:52:04.370Z,7.30
2022-09-24T16:54:32.652Z,8.37
2022-09-24T16:57:01.738Z,11.70
2022-09-24T16:59:28.615Z,9.00
2022-09-24T17:01:55.588Z,8.17
2022-09-24T17:04:22.708Z,9.67
2022-09-24T17:06:49.693Z,8.20
2022-09-24T17:09:35.366Z,9.67
2022-09-24T17:12:02.245Z,7.63
2022-09-24T17:14:29.184Z,8.00
2022-09-24T17:16:56.081Z,7.07
2022-09-24T17:19:22.957Z,5.77
2022-09-24T17:21:54.156Z,6.40
2022-09-24T17:24:22.102Z,7.50
2022-09-24T17:26:49.395Z,6.43
2022-09-24T17:29:20.442Z,8.17
2022-09-24T17:31:47.423Z,17.40
2022-09-24T17:34:15.198Z,10.80
2022-09-24T17:36:42.902Z,9.60
2022-09-24T17:39:12.836Z,9.40
2022-09-24T17:41:39.755Z,8.40
2022-09-24T17:44:07.194Z,6.50
2022-09-24T17:46:35.922Z,6.70
2022-09-24T17:49:03.272Z,7.20
2022-09-24T17:51:38.706Z,8.90
2022-09-24T17:54:10.679Z,7.50
2022-09-24T17:56:38.965Z,8.20
2022-09-24T17:59:08.799Z,10.60
2022-09-24T18:01:37.598Z,11.90
2022-09-24T18:04:07.133Z,11.17
2022-09-24T18:06:37.510Z,11.30
2022-09-24T18:09:05.333Z,11.20
2022-09-24T18:11:52.794Z,12.70
2022-09-24T18:14:22.578Z,14.07
2022-09-24T18:16:50.263Z,12.53
2022-09-24T18:19:17.683Z,10.27
2022-09-24T18:21:46.202Z,10.43
2022-09-24T18:24:14.358Z,11.37
2022-09-24T18:26:41.330Z,10.87
2022-09-24T18:29:15.631Z,12.17
2022-09-24T18:31:43.047Z,13.27
2022-09-24T18:34:14.634Z,14.10
2022-09-24T18:36:43.505Z,19.43
2022-09-24T18:39:13.373Z,18.53
2022-09-24T18:41:41.820Z,18.37
2022-09-24T18:44:10.387Z,18.77
2022-09-24T18:46:37.492Z,20.13
2022-09-24T18:49:06.266Z,19.93
2022-09-24T18:51:36.326Z,22.30
2022-09-24T18:54:10.881Z,25.43
2022-09-24T18:56:37.845Z,26.23
2022-09-24T18:59:12.645Z,26.10
2022-09-24T19:01:40.443Z,25.20
2022-09-24T19:04:10.651Z,28.23
2022-09-24T19:06:41.155Z,26.83
2022-09-24T19:09:09.284Z,28.07
2022-09-24T19:11:36.964Z,32.20
2022-09-24T19:14:04.346Z,36.47
2022-09-24T19:16:31.762Z,33.93
2022-09-24T19:19:00.809Z,33.90
2022-09-24T19:21:27.761Z,28.50
2022-09-24T19:23:57.467Z,28.23
2022-09-24T19:26:28.745Z,28.83
2022-09-24T19:28:55.699Z,28.13
2022-09-24T19:31:36.430Z,30.50
2022-09-24T19:34:05.890Z,28.00
2022-09-24T19:36:42.841Z,28.33
2022-09-24T19:39:16.430Z,29.00
2022-09-24T19:41:45.018Z,32.63
2022-09-24T19:44:12.241Z,30.77
2022-09-24T19:46:39.532Z,29.73
2022-09-24T19:49:07.027Z,18.57
2022-09-24T19:51:35.813Z,20.87
2022-09-24T19:54:06.694Z,20.73
2022-09-24T19:56:34.022Z,20.63
2022-09-24T19:59:01.716Z,17.40
2022-09-24T20:01:31.389Z,14.50
2022-09-24T20:04:02.073Z,15.70
2022-09-24T20:06:31.148Z,14.13
2022-09-24T20:08:59.289Z,16.10
2022-09-24T20:11:26.801Z,16.77
2022-09-24T20:13:56.070Z,17.50
2022-09-24T20:16:26.815Z,17.27
2022-09-24T20:18:57.428Z,15.83
2022-09-24T20:21:31.979Z,17.67
2022-09-24T20:23:59.130Z,16.30
2022-09-24T20:26:45.649Z,16.40
2022-09-24T20:29:14.132Z,15.00
2022-09-24T20:31:45.561Z,15.90
2022-09-24T20:34:12.469Z,15.13
2022-09-24T20:36:39.376Z,16.77
2022-09-24T20:39:06.234Z,18.43
2022-09-24T20:41:33.449Z,19.23
2022-09-24T20:44:00.344Z,20.20
2022-09-24T20:46:28.726Z,18.47
2022-09-24T20:48:58.398Z,16.13
2022-09-24T20:51:28.191Z,14.10
2022-09-24T20:53:55.725Z,12.57
2022-09-24T20:56:22.791Z,13.40
2022-09-24T20:58:51.825Z,11.53
2022-09-24T21:01:19.843Z,13.57
2022-09-24T21:03:49.748Z,14.30
2022-09-24T21:06:17.954Z,13.17
2022-09-24T21:08:46.672Z,14.17
2022-09-24T21:11:18.079Z,12.67
2022-09-24T21:13:51.688Z,12.93
2022-09-24T21:16:26.073Z,12.43
2022-09-24T21:18:56.129Z,12.67
2022-09-24T21:21:27.065Z,12.50
2022-09-24T21:23:57.106Z,13.00
2022-09-24T21:26:32.263Z,12.67
2022-09-24T21:29:18.029Z,12.73
2022-09-24T21:31:47.485Z,12.97
2022-09-24T21:34:19.679Z,12.50
2022-09-24T21:36:46.803Z,12.63
2022-09-24T21:39:16.264Z,12.70
2022-09-24T21:41:44.923Z,12.90
2022-09-24T21:44:14.886Z,14.20
2022-09-24T21:46:43.868Z,12.10
2022-09-24T21:49:11.838Z,12.27
2022-09-24T21:51:39.676Z,12.80
2022-09-24T21:54:08.612Z,12.80
2022-09-24T21:56:36.793Z,13.10
2022-09-24T21:59:24.380Z,12.33
2022-09-24T22:01:51.358Z,13.47
2022-09-24T22:04:18.368Z,13.30
2022-09-24T22:06:45.668Z,12.60
2022-09-24T22:09:13.083Z,11.40
2022-09-24T22:11:40.022Z,12.63
2022-09-24T22:14:07.105Z,11.53
2022-09-24T22:16:36.257Z,12.07
2022-09-24T22:19:06.020Z,13.00
2022-09-24T22:21:33.728Z,12.23
2022-09-24T22:24:01.015Z,11.73
2022-09-24T22:26:29.568Z,11.40
2022-09-24T22:28:57.017Z,10.70
2022-09-24T22:31:23.997Z,12.20
2022-09-24T22:34:09.374Z,11.77
2022-09-24T22:36:36.457Z,11.17
2022-09-24T22:39:05.146Z,12.37
2022-09-24T22:41:35.981Z,12.43
2022-09-24T22:44:03.200Z,11.27
2022-09-24T22:46:32.189Z,12.47
2022-09-24T22:48:59.381Z,11.03
2022-09-24T22:51:27.184Z,11.43
2022-09-24T22:53:54.968Z,11.20
2022-09-24T22:56:24.978Z,10.83
2022-09-24T22:58:57.661Z,11.90
2022-09-24T23:01:29.011Z,11.20
2022-09-24T23:03:57.144Z,12.67
2022-09-24T23:06:25.188Z,12.00
2022-09-24T23:08:54.273Z,13.17
2022-09-24T23:11:25.383Z,12.30
2022-09-24T23:13:59.869Z,12.67
2022-09-24T23:16:37.962Z,12.00
2022-09-24T23:19:11.258Z,12.70
2022-09-24T23:21:38.134Z,12.90
2022-09-24T23:24:28.313Z,13.73
2022-09-24T23:26:55.189Z,11.90
2022-09-24T23:29:22.049Z,11.97
2022-09-24T23:31:48.925Z,11.50
2022-09-24T23:34:15.783Z,11.63
2022-09-24T23:36:46.167Z,12.20
2022-09-24T23:39:13.561Z,12.77
2022-09-24T23:41:40.669Z,11.93
2022-09-24T23:44:07.599Z,12.07
2022-09-24T23:46:34.588Z,12.70
2022-09-24T23:49:01.535Z,12.40
2022-09-24T23:51:28.425Z,12.33
2022-09-24T23:53:55.315Z,10.83
2022-09-24T23:56:22.219Z,12.70
2022-09-24T23:58:49.387Z,11.20
